EDSB/FKB METAR and TAF weather

Enter ICAO airport designator
Station Type Date Time Source
EDSB METAR 2019/02/23 02:20 UTC NOAA

EDSB 230220Z AUTO 03010KT 9999 NCD 05/03 Q1037


Station Type Date Time Source
EDSB Decoded METAR 2019/02/23 02:20 UTC NOAA

Karlsruhe, Baden Wurttemberg, Germany (EDSB) 48-46-43N 008-04-47E
Feb 22, 2019 - 09:20 PM EST / 2019.02.23 0220 UTC
Wind: from the NNE (030 degrees) at 12 MPH (10 KT):0
Visibility: greater than 7 mile(s):0
Temperature: 41 F (5 C)
Dew Point: 37 F (3 C)
Relative Humidity: 86%
Pressure (altimeter): 30.62 in. Hg (1037 hPa)
ob: EDSB 230220Z AUTO 03010KT 9999 NCD 05/03 Q1037
cycle: 2

Station Type Date Time Source
EDSB TAF 2019/02/23 01:30 UTC NOAA

TAF TAF EDSB 230118Z 2301/2318 CNL


Example: see airport list